Time;durP1;ratioP1;P1;durP2;ratioP2;P2;SDS_P1;SDS_P2;PMS_P1;PMS_P2;Temp;Humidity;BMP_temperature;BMP_pressure;BME280_temperature;BME280_humidity;BME280_pressure;Samples;Min_cycle;Max_cycle;Signal;HPM_P1;HPM_P2
2024/01/15 12:26:36;;;;;;;0.03;0.03;;;20.70;76.10;;;;;;5106185;27;20503;-64
2024/01/15 12:30:34;;;;;;;0.00;0.00;;;21.10;71.40;;;;;;5022130;27;20481;-72
2024/01/15 12:34:32;;;;;;;0.00;0.00;;;22.50;69.30;;;;;;5051770;27;20286;-70
2024/01/15 12:36:59;;;;;;;19.65;3.42;;;22.40;68.40;;;;;;5013317;28;23208;-67
2024/01/15 13:09:25;;;;;;;0.00;0.00;;;24.00;65.50;;;;;;5041417;27;21124;-59
2024/01/15 13:11:52;;;;;;;0.00;0.00;;;23.30;65.70;;;;;;5040144;28;20559;-66
2024/01/15 13:14:19;;;;;;;0.00;0.00;;;23.00;66.40;;;;;;5055564;27;20510;-69
2024/01/15 13:16:47;;;;;;;0.00;0.00;;;22.50;67.10;;;;;;5030696;28;20092;-65
2024/01/15 14:09:46;;;;;;;0.13;0.13;;;4.90;92.00;;;;;;5116261;27;20481;-78
2024/01/15 14:12:13;;;;;;;0.10;0.10;;;4.20;99.60;;;;;;5122345;27;22851;-78
2024/01/15 14:14:40;;;;;;;0.10;0.10;;;3.50;99.90;;;;;;5100126;27;20056;-77
2024/01/15 14:17:08;;;;;;;0.10;0.10;;;3.00;99.90;;;;;;5092991;28;23274;-77
2024/01/15 14:19:35;;;;;;;0.10;0.10;;;2.80;99.90;;;;;;5090564;28;20044;-77
2024/01/15 14:22:03;;;;;;;0.10;0.10;;;3.00;99.90;;;;;;5068963;28;20052;-77
2024/01/15 14:24:30;;;;;;;0.10;0.10;;;2.90;99.90;;;;;;5094080;27;20502;-76
2024/01/15 14:26:58;;;;;;;0.10;0.10;;;2.80;99.90;;;;;;5076517;28;20059;-75
2024/01/15 14:29:26;;;;;;;0.20;0.20;;;2.80;99.90;;;;;;5089391;28;20543;-75
2024/01/15 14:31:53;;;;;;;0.10;0.10;;;2.70;99.90;;;;;;5089197;28;20044;-75
2024/01/15 14:34:23;;;;;;;0.10;0.10;;;2.60;99.90;;;;;;5101129;27;20052;-75
2024/01/15 14:36:53;;;;;;;0.10;0.10;;;2.40;99.90;;;;;;5110737;27;20123;-75
2024/01/15 14:39:22;;;;;;;0.10;0.10;;;2.20;99.90;;;;;;5087541;27;20107;-74
2024/01/15 14:41:49;;;;;;;0.10;0.10;;;2.10;99.90;;;;;;5124933;27;20048;-75
2024/01/15 14:44:17;;;;;;;0.10;0.10;;;2.00;99.90;;;;;;5124916;27;20052;-75
2024/01/15 14:46:44;;;;;;;0.10;0.10;;;2.00;99.90;;;;;;5094493;27;20044;-75
2024/01/15 14:49:11;;;;;;;0.10;0.10;;;2.00;99.90;;;;;;5086726;27;20048;-75
2024/01/15 14:51:38;;;;;;;0.10;0.10;;;1.90;99.90;;;;;;5107925;27;20161;-75
2024/01/15 14:54:06;;;;;;;0.10;0.10;;;1.80;99.90;;;;;;5123889;27;20640;-75
2024/01/15 14:56:33;;;;;;;0.10;0.10;;;1.70;99.90;;;;;;5072669;28;20053;-75
2024/01/15 14:59:00;;;;;;;0.10;0.10;;;1.70;99.90;;;;;;5104136;27;20064;-75
2024/01/15 15:01:28;;;;;;;0.10;0.10;;;1.70;99.90;;;;;;5090960;28;20072;-75
2024/01/15 15:03:55;;;;;;;0.10;0.10;;;1.60;99.90;;;;;;5089627;27;20048;-75
2024/01/15 15:06:27;;;;;;;0.10;0.10;;;1.50;99.90;;;;;;5092800;27;20048;-76
2024/01/15 15:08:55;;;;;;;0.10;0.10;;;1.50;99.90;;;;;;5104713;27;20052;-75
2024/01/15 15:11:24;;;;;;;0.10;0.10;;;1.50;99.90;;;;;;5124231;27;20048;-75
2024/01/15 15:13:52;;;;;;;0.15;0.15;;;1.50;99.90;;;;;;5083043;27;20056;-76
2024/01/15 15:16:19;;;;;;;0.10;0.10;;;1.40;99.90;;;;;;5101615;27;20123;-76
2024/01/15 15:18:47;;;;;;;0.10;0.10;;;1.40;99.90;;;;;;5079268;27;20055;-75
2024/01/15 15:21:14;;;;;;;0.10;0.10;;;1.40;99.90;;;;;;5101328;27;20036;-75
2024/01/15 15:23:41;;;;;;;0.10;0.10;;;1.40;99.90;;;;;;5098878;27;20055;-75
2024/01/15 15:26:09;;;;;;;0.10;0.10;;;1.40;99.90;;;;;;5100933;27;20056;-75
2024/01/15 15:28:36;;;;;;;0.10;0.10;;;1.50;99.90;;;;;;5080583;27;20051;-75
2024/01/15 15:31:08;;;;;;;0.20;0.20;;;1.50;99.90;;;;;;5113071;27;20052;-75
2024/01/15 15:33:35;;;;;;;0.10;0.10;;;1.50;99.90;;;;;;5095932;27;20040;-75
2024/01/15 15:36:04;;;;;;;0.10;0.10;;;1.60;99.90;;;;;;5081958;27;20052;-75
2024/01/15 15:38:32;;;;;;;0.10;0.10;;;1.60;99.90;;;;;;5095159;28;20509;-75
2024/01/15 15:41:00;;;;;;;0.20;0.20;;;1.70;99.90;;;;;;5109447;27;20043;-75
2024/01/15 15:43:28;;;;;;;0.10;0.10;;;1.50;99.90;;;;;;5105325;28;20055;-75
2024/01/15 15:45:57;;;;;;;0.10;0.10;;;1.50;99.90;;;;;;5102696;27;20067;-76
2024/01/15 15:48:25;;;;;;;0.10;0.10;;;1.40;99.90;;;;;;5100811;27;20165;-76
2024/01/15 15:50:52;;;;;;;0.10;0.10;;;1.40;99.90;;;;;;5110515;27;21295;-77
2024/01/15 15:53:20;;;;;;;0.10;0.10;;;1.40;99.90;;;;;;5065233;28;20479;-76
2024/01/15 15:55:47;;;;;;;0.10;0.10;;;1.30;99.90;;;;;;5054137;28;20048;-76
2024/01/15 15:58:14;;;;;;;0.20;0.20;;;1.30;99.90;;;;;;5053981;27;20052;-76
2024/01/15 16:00:42;;;;;;;0.10;0.10;;;1.30;99.90;;;;;;5041382;28;20492;-76
2024/01/15 16:03:09;;;;;;;0.10;0.10;;;1.20;99.90;;;;;;5070179;28;20143;-76
2024/01/15 16:05:36;;;;;;;0.10;0.10;;;1.20;99.90;;;;;;5073756;27;20052;-76
2024/01/15 16:08:08;;;;;;;0.10;0.10;;;1.10;99.90;;;;;;5060681;28;20059;-76
2024/01/15 16:10:36;;;;;;;0.10;0.10;;;1.10;99.90;;;;;;5093907;28;21008;-76
2024/01/15 16:13:03;;;;;;;0.20;0.20;;;1.10;99.90;;;;;;5092678;27;20040;-76
2024/01/15 16:15:30;;;;;;;0.10;0.10;;;1.20;99.90;;;;;;5073315;28;20158;-76
2024/01/15 16:17:58;;;;;;;0.17;0.17;;;1.20;99.90;;;;;;5090264;27;20103;-77
2024/01/15 16:20:45;;;;;;;0.10;0.10;;;1.30;99.90;;;;;;5086702;28;20511;-76
2024/01/15 16:23:32;;;;;;;0.10;0.10;;;1.30;99.90;;;;;;5079763;28;20532;-76
2024/01/15 16:26:19;;;;;;;0.13;0.13;;;1.30;99.90;;;;;;5084351;28;20072;-76
2024/01/15 16:28:47;;;;;;;0.10;0.10;;;1.30;99.90;;;;;;5076376;28;26832;-76
2024/01/15 16:31:14;;;;;;;0.10;0.10;;;1.20;99.90;;;;;;5059063;28;20045;-75
2024/01/15 16:33:41;;;;;;;0.10;0.10;;;1.20;99.90;;;;;;5092089;27;20198;-75
2024/01/15 16:36:11;;;;;;;0.13;0.13;;;1.20;99.90;;;;;;5090972;27;20569;-76
2024/01/15 16:38:38;;;;;;;0.10;0.10;;;1.30;99.90;;;;;;5113693;27;20098;-75
2024/01/15 16:41:05;;;;;;;0.10;0.10;;;1.30;99.90;;;;;;5118595;27;20070;-76
2024/01/15 16:43:32;;;;;;;0.10;0.10;;;1.30;99.90;;;;;;5052086;28;20107;-75
2024/01/15 16:46:00;;;;;;;0.10;0.10;;;1.30;99.90;;;;;;5076966;28;20045;-76
2024/01/15 16:48:27;;;;;;;0.20;0.20;;;1.20;99.90;;;;;;5081156;28;20060;-76
2024/01/15 16:50:55;;;;;;;0.10;0.10;;;1.20;99.90;;;;;;5099930;27;20052;-75
2024/01/15 16:53:22;;;;;;;0.10;0.10;;;1.20;99.90;;;;;;5100507;27;20060;-75
2024/01/15 16:55:50;;;;;;;0.10;0.10;;;1.20;99.90;;;;;;5089590;27;20040;-76
2024/01/15 16:58:18;;;;;;;0.10;0.10;;;1.20;99.90;;;;;;5095595;27;20568;-76
2024/01/15 17:00:47;;;;;;;0.10;0.10;;;1.20;99.90;;;;;;5077471;28;20059;-75
2024/01/15 17:03:14;;;;;;;0.20;0.20;;;1.20;99.90;;;;;;5090919;27;20062;-76
2024/01/15 17:05:41;;;;;;;0.20;0.20;;;1.10;99.90;;;;;;5094566;27;20052;-75
2024/01/15 17:08:08;;;;;;;0.17;0.17;;;1.00;99.90;;;;;;5098750;27;20056;-75
2024/01/15 17:10:36;;;;;;;0.10;0.10;;;1.00;99.90;;;;;;5093636;27;20048;-74
2024/01/15 17:13:06;;;;;;;0.10;0.10;;;1.00;99.90;;;;;;5095711;27;20852;-75
2024/01/15 17:15:34;;;;;;;0.10;0.10;;;1.00;99.90;;;;;;5089800;27;20056;-75
2024/01/15 17:18:03;;;;;;;0.10;0.10;;;0.90;99.90;;;;;;5089552;27;20131;-74
2024/01/15 17:20:30;;;;;;;0.10;0.10;;;0.90;99.90;;;;;;5078225;28;20035;-75
2024/01/15 17:22:58;;;;;;;0.10;0.10;;;0.90;99.90;;;;;;5095512;27;20502;-75
2024/01/15 17:25:25;;;;;;;0.10;0.10;;;0.80;99.90;;;;;;5091241;27;20052;-74
2024/01/15 17:27:52;;;;;;;0.10;0.10;;;0.80;99.90;;;;;;5077441;28;20413;-74
2024/01/15 17:30:19;;;;;;;0.10;0.10;;;0.80;99.90;;;;;;5075483;28;20041;-74
2024/01/15 17:32:46;;;;;;;0.10;0.10;;;0.80;99.90;;;;;;5095412;27;20051;-74
2024/01/15 17:35:14;;;;;;;0.10;0.10;;;0.80;99.90;;;;;;5111739;27;20501;-74
2024/01/15 17:37:41;;;;;;;0.10;0.10;;;0.90;99.90;;;;;;5078061;28;20132;-74
2024/01/15 17:40:09;;;;;;;0.20;0.20;;;0.90;99.90;;;;;;5091396;28;20090;-74
2024/01/15 17:42:36;;;;;;;0.20;0.20;;;1.00;99.90;;;;;;5071059;28;20162;-74
2024/01/15 17:45:06;;;;;;;0.20;0.20;;;1.10;99.90;;;;;;5062350;27;20078;-74
2024/01/15 17:47:33;;;;;;;0.10;0.10;;;1.20;99.90;;;;;;5074236;27;20048;-74
2024/01/15 17:50:00;;;;;;;0.10;0.10;;;1.20;99.90;;;;;;5075644;27;20849;-74
2024/01/15 17:52:27;;;;;;;0.10;0.10;;;1.20;99.90;;;;;;5092948;27;21080;-74
2024/01/15 17:54:55;;;;;;;0.10;0.10;;;1.10;99.90;;;;;;5074446;27;20056;-74
2024/01/15 17:57:22;;;;;;;0.10;0.10;;;1.10;99.90;;;;;;5092605;27;20047;-75
2024/01/15 17:59:49;;;;;;;0.10;0.10;;;1.10;99.90;;;;;;5096118;27;22216;-74
2024/01/15 18:02:16;;;;;;;0.10;0.10;;;1.10;99.90;;;;;;5098075;27;20040;-74
2024/01/15 18:04:44;;;;;;;0.10;0.10;;;1.10;99.90;;;;;;5095031;27;20052;-74
2024/01/15 18:07:11;;;;;;;0.10;0.10;;;1.10;99.90;;;;;;5109633;27;20510;-74
2024/01/15 18:09:38;;;;;;;0.10;0.10;;;1.20;99.90;;;;;;5092936;27;20055;-74
2024/01/15 18:12:05;;;;;;;0.10;0.10;;;1.20;99.90;;;;;;5096921;27;20048;-74
2024/01/15 18:14:32;;;;;;;0.10;0.10;;;1.20;99.90;;;;;;5076975;28;20059;-74
2024/01/15 18:16:59;;;;;;;0.10;0.10;;;1.20;99.90;;;;;;5112968;27;20047;-74
2024/01/15 18:19:27;;;;;;;0.10;0.10;;;1.20;99.90;;;;;;5094730;27;20139;-74
2024/01/15 18:21:54;;;;;;;0.10;0.10;;;1.20;99.90;;;;;;5082961;28;20059;-74
2024/01/15 18:24:21;;;;;;;0.10;0.10;;;1.30;99.90;;;;;;5066255;28;20789;-74
2024/01/15 18:26:52;;;;;;;0.10;0.10;;;1.20;99.90;;;;;;5102202;28;20059;-74
2024/01/15 18:29:21;;;;;;;0.15;0.15;;;1.20;99.90;;;;;;5089194;27;20063;-74
2024/01/15 18:31:48;;;;;;;0.10;0.10;;;1.20;99.90;;;;;;5109019;27;20071;-74
2024/01/15 18:34:16;;;;;;;0.10;0.10;;;1.20;99.90;;;;;;5117556;27;20480;-73
2024/01/15 18:36:46;;;;;;;0.10;0.10;;;1.10;99.90;;;;;;5061099;28;20044;-74
2024/01/15 18:39:16;;;;;;;0.10;0.10;;;1.10;99.90;;;;;;5094152;27;20052;-74
2024/01/15 18:41:44;;;;;;;0.10;0.10;;;1.00;99.90;;;;;;5110249;27;20998;-74
2024/01/15 18:44:12;;;;;;;0.10;0.10;;;1.00;99.90;;;;;;5091780;27;20860;-74
2024/01/15 18:46:45;;;;;;;0.10;0.10;;;1.00;99.90;;;;;;5096299;27;20044;-74
2024/01/15 18:49:13;;;;;;;;;;;0.90;99.90;;;;;;5086010;28;20084;-74
2024/01/15 18:51:40;;;;;;;0.10;0.10;;;1.00;99.90;;;;;;5099480;27;19924;-74
2024/01/15 18:54:07;;;;;;;0.10;0.10;;;1.00;99.90;;;;;;5068647;28;20052;-74
2024/01/15 18:56:40;;;;;;;0.20;0.20;;;1.10;99.90;;;;;;5080221;28;21568;-74
2024/01/15 18:59:08;;;;;;;0.20;0.20;;;1.10;99.90;;;;;;5114300;27;20048;-74
2024/01/15 19:01:36;;;;;;;0.10;0.10;;;1.10;99.90;;;;;;5119153;27;20048;-76
2024/01/15 19:04:03;;;;;;;0.10;0.10;;;1.10;99.90;;;;;;5100156;27;20151;-75
2024/01/15 19:06:30;;;;;;;0.10;0.10;;;1.10;99.90;;;;;;5080208;28;20435;-75
2024/01/15 19:08:57;;;;;;;0.10;0.10;;;1.10;99.90;;;;;;5094236;27;20059;-75
2024/01/15 19:11:26;;;;;;;0.10;0.10;;;1.10;99.90;;;;;;5099304;27;20044;-75
2024/01/15 19:13:53;;;;;;;0.10;0.10;;;1.20;99.90;;;;;;5097689;27;20655;-75
2024/01/15 19:16:23;;;;;;;0.10;0.10;;;1.20;99.90;;;;;;5098574;28;20040;-74
2024/01/15 19:18:52;;;;;;;0.10;0.10;;;1.20;99.90;;;;;;5076130;27;20081;-75
2024/01/15 19:21:20;;;;;;;0.10;0.10;;;1.20;99.90;;;;;;5083175;27;20059;-75
2024/01/15 19:23:47;;;;;;;0.15;0.15;;;1.20;99.90;;;;;;5091138;27;20044;-74
2024/01/15 19:26:21;;;;;;;0.10;0.10;;;1.20;99.90;;;;;;5114960;27;20582;-75
2024/01/15 19:28:49;;;;;;;0.13;0.13;;;1.10;99.90;;;;;;5095615;27;20044;-75
2024/01/15 19:31:18;;;;;;;0.10;0.10;;;1.00;99.90;;;;;;5113585;27;20078;-74
2024/01/15 19:33:46;;;;;;;0.17;0.17;;;1.00;99.90;;;;;;5097892;27;21371;-74
2024/01/15 19:36:24;;;;;;;0.20;0.20;;;0.90;99.90;;;;;;5091193;27;20059;-75
2024/01/15 19:38:52;;;;;;;0.20;0.20;;;0.90;99.90;;;;;;5097957;27;20047;-74
2024/01/15 19:41:21;;;;;;;0.20;0.20;;;0.90;99.90;;;;;;5116277;27;20040;-75
2024/01/15 19:43:48;;;;;;;0.10;0.10;;;0.80;99.90;;;;;;5087896;27;20093;-75
2024/01/15 19:46:16;;;;;;;0.10;0.10;;;0.80;99.90;;;;;;5118964;27;20044;-74
2024/01/15 19:48:43;;;;;;;0.10;0.10;;;0.70;99.90;;;;;;5107716;27;20485;-75
2024/01/15 19:51:11;;;;;;;0.10;0.10;;;0.70;99.90;;;;;;5100602;27;19932;-74
2024/01/15 19:53:40;;;;;;;0.17;0.17;;;0.80;99.90;;;;;;5106492;27;20600;-74
2024/01/15 19:56:07;;;;;;;0.15;0.15;;;0.70;99.90;;;;;;5090702;28;20133;-74
2024/01/15 19:58:35;;;;;;;0.10;0.10;;;0.80;99.90;;;;;;5124558;27;20484;-75
2024/01/15 20:01:02;;;;;;;0.10;0.10;;;0.90;99.90;;;;;;5117385;27;20113;-75
2024/01/15 20:03:30;;;;;;;0.10;0.10;;;1.00;99.90;;;;;;5052487;27;20528;-73
2024/01/15 20:05:57;;;;;;;0.10;0.10;;;1.00;99.90;;;;;;5105742;27;20045;-74
2024/01/15 20:08:24;;;;;;;0.10;0.10;;;1.00;99.90;;;;;;5113158;27;21229;-74
2024/01/15 20:10:52;;;;;;;0.10;0.10;;;0.90;99.90;;;;;;5089094;28;20058;-75
2024/01/15 20:13:20;;;;;;;0.20;0.20;;;0.90;99.90;;;;;;5077885;27;20052;-74
2024/01/15 20:15:47;;;;;;;0.10;0.10;;;0.90;99.90;;;;;;5086018;28;20048;-75
2024/01/15 20:18:14;;;;;;;0.10;0.10;;;0.90;99.90;;;;;;5103489;27;20526;-74
2024/01/15 20:20:41;;;;;;;0.10;0.10;;;0.90;99.90;;;;;;5117271;27;20048;-74
2024/01/15 20:23:09;;;;;;;0.10;0.10;;;0.90;99.90;;;;;;5087033;28;20041;-74
2024/01/15 20:25:37;;;;;;;0.20;0.20;;;0.80;99.90;;;;;;5074206;28;20051;-74
2024/01/15 20:28:06;;;;;;;0.20;0.20;;;0.80;99.90;;;;;;5052850;28;20135;-75
2024/01/15 20:30:33;;;;;;;0.10;0.10;;;0.80;99.90;;;;;;5099690;27;20474;-74
2024/01/15 20:33:00;;;;;;;0.10;0.10;;;0.80;99.90;;;;;;5078937;28;20519;-74
2024/01/15 20:35:28;;;;;;;0.10;0.10;;;0.90;99.90;;;;;;5083917;28;20851;-74
2024/01/15 20:37:57;;;;;;;0.10;0.10;;;0.90;99.90;;;;;;5067258;28;20052;-75
2024/01/15 20:40:24;;;;;;;0.10;0.10;;;0.90;99.90;;;;;;5085536;28;20056;-74
2024/01/15 20:42:52;;;;;;;0.10;0.10;;;0.90;99.90;;;;;;5078016;28;20051;-74
2024/01/15 20:45:19;;;;;;;0.10;0.10;;;1.00;99.90;;;;;;5086099;28;20167;-75
2024/01/15 20:47:46;;;;;;;0.10;0.10;;;1.00;99.90;;;;;;5077025;28;20049;-75
2024/01/15 20:50:13;;;;;;;0.20;0.20;;;0.90;99.90;;;;;;5082322;28;20048;-74
2024/01/15 20:52:40;;;;;;;0.20;0.20;;;0.90;99.90;;;;;;5050268;28;20567;-74
2024/01/15 20:55:09;;;;;;;0.17;0.17;;;0.80;99.90;;;;;;5076249;28;20128;-75
2024/01/15 20:57:37;;;;;;;0.15;0.15;;;0.80;99.90;;;;;;5067433;28;20045;-74
2024/01/15 21:00:06;;;;;;;0.10;0.10;;;0.80;99.90;;;;;;5079799;28;20041;-74
2024/01/15 21:02:37;;;;;;;0.10;0.10;;;0.80;99.90;;;;;;5082795;28;20165;-74
2024/01/15 21:05:05;;;;;;;0.13;0.13;;;0.90;99.90;;;;;;5079213;28;20049;-74
2024/01/15 21:07:32;;;;;;;0.10;0.10;;;0.90;99.90;;;;;;5108105;27;20040;-75
2024/01/15 21:09:59;;;;;;;0.10;0.10;;;0.90;99.90;;;;;;5061100;28;20052;-74
2024/01/15 21:12:26;;;;;;;0.15;0.15;;;0.90;99.90;;;;;;5081402;28;20088;-74
2024/01/15 21:14:55;;;;;;;0.10;0.10;;;1.00;99.90;;;;;;5114159;27;20044;-74
2024/01/15 21:17:23;;;;;;;0.10;0.10;;;0.90;99.90;;;;;;5073097;28;20468;-74
2024/01/15 21:19:55;;;;;;;0.10;0.10;;;0.80;99.90;;;;;;5066952;28;20048;-75
2024/01/15 21:22:22;;;;;;;0.10;0.10;;;0.80;99.90;;;;;;5076646;28;20052;-74
2024/01/15 21:24:50;;;;;;;0.10;0.10;;;0.80;99.90;;;;;;5107464;27;20054;-74
2024/01/15 21:27:17;;;;;;;0.10;0.10;;;0.80;99.90;;;;;;5068177;28;20055;-76
2024/01/15 21:29:45;;;;;;;0.10;0.10;;;0.90;99.90;;;;;;5064096;28;20048;-75
2024/01/15 21:32:12;;;;;;;0.10;0.10;;;0.90;99.90;;;;;;5066011;28;20052;-75
2024/01/15 21:34:39;;;;;;;0.20;0.20;;;0.90;99.90;;;;;;5062564;28;20095;-75
2024/01/15 21:37:06;;;;;;;0.10;0.10;;;0.90;99.90;;;;;;5077640;28;20718;-76
2024/01/15 21:39:33;;;;;;;0.10;0.10;;;0.90;99.90;;;;;;5056074;28;20045;-76
2024/01/15 21:42:01;;;;;;;0.10;0.10;;;1.00;99.90;;;;;;5077968;28;20053;-77
2024/01/15 21:44:28;;;;;;;0.10;0.10;;;1.00;99.90;;;;;;5093733;27;20079;-76
2024/01/15 21:46:56;;;;;;;0.10;0.10;;;1.00;99.90;;;;;;5080469;28;20045;-76
2024/01/15 21:49:23;;;;;;;0.10;0.10;;;1.00;99.90;;;;;;5079857;28;20497;-75
2024/01/15 21:51:52;;;;;;;0.17;0.17;;;1.00;99.90;;;;;;5067879;28;20130;-75
2024/01/15 21:54:19;;;;;;;0.10;0.10;;;1.00;99.90;;;;;;5065374;28;20052;-76
2024/01/15 21:56:47;;;;;;;0.10;0.10;;;1.00;99.90;;;;;;5063725;28;20056;-76
2024/01/15 21:59:14;;;;;;;0.10;0.10;;;1.00;99.90;;;;;;5074319;28;20045;-76
2024/01/15 22:01:41;;;;;;;0.10;0.10;;;1.00;99.90;;;;;;5042133;28;20159;-76
2024/01/15 22:04:08;;;;;;;0.13;0.13;;;1.00;99.90;;;;;;5072775;28;22126;-75
2024/01/15 22:06:36;;;;;;;0.10;0.10;;;1.10;99.90;;;;;;5072943;28;20043;-75
2024/01/15 22:09:03;;;;;;;0.10;0.10;;;1.00;99.90;;;;;;5049583;28;20122;-75
2024/01/15 22:11:31;;;;;;;0.10;0.10;;;1.00;99.90;;;;;;5037769;28;20056;-75
2024/01/15 22:13:58;;;;;;;0.10;0.10;;;1.00;99.90;;;;;;5053882;28;20526;-76
2024/01/15 22:16:25;;;;;;;0.10;0.10;;;1.10;99.90;;;;;;5076158;28;20044;-76
2024/01/15 22:18:52;;;;;;;0.10;0.10;;;1.00;99.90;;;;;;5085947;27;20048;-76
2024/01/15 22:21:19;;;;;;;0.10;0.10;;;1.10;99.90;;;;;;5071044;28;21082;-76
2024/01/15 22:23:46;;;;;;;0.10;0.10;;;1.00;99.90;;;;;;5073763;28;22093;-76
2024/01/15 22:26:13;;;;;;;0.10;0.10;;;0.90;99.90;;;;;;5091784;28;20055;-76
2024/01/15 22:28:40;;;;;;;0.10;0.10;;;0.80;99.90;;;;;;5080563;28;20531;-76
2024/01/15 22:31:08;;;;;;;0.10;0.10;;;0.80;99.90;;;;;;5064433;28;20063;-76
2024/01/15 22:33:35;;;;;;;0.10;0.10;;;0.70;99.90;;;;;;5072981;28;20989;-75
2024/01/15 22:36:02;;;;;;;0.10;0.10;;;0.60;99.90;;;;;;5054071;28;20098;-75
2024/01/15 22:38:29;;;;;;;0.10;0.10;;;0.60;99.90;;;;;;5093751;27;20045;-76
2024/01/15 22:40:56;;;;;;;0.20;0.20;;;0.50;99.90;;;;;;5075615;28;20053;-76
2024/01/15 22:43:23;;;;;;;0.10;0.10;;;0.40;99.90;;;;;;5057905;28;20048;-76
2024/01/15 22:45:50;;;;;;;0.10;0.10;;;0.40;99.90;;;;;;5076789;28;20467;-75
2024/01/15 22:48:18;;;;;;;0.10;0.10;;;0.30;99.90;;;;;;5074717;28;20107;-76
2024/01/15 22:50:45;;;;;;;0.10;0.10;;;0.20;99.90;;;;;;5074375;28;20052;-76
2024/01/15 22:53:12;;;;;;;0.10;0.10;;;0.20;99.90;;;;;;5077080;28;20041;-77
2024/01/15 22:55:39;;;;;;;0.10;0.10;;;0.20;99.90;;;;;;5066827;28;20057;-76
2024/01/15 22:58:06;;;;;;;0.10;0.10;;;0.10;99.90;;;;;;5062763;28;20052;-77
2024/01/15 23:00:34;;;;;;;0.10;0.10;;;0.10;99.90;;;;;;5048958;28;20055;-76
2024/01/15 23:03:02;;;;;;;0.10;0.10;;;0.00;99.90;;;;;;5097134;28;20504;-76
2024/01/15 23:05:29;;;;;;;0.10;0.10;;;0.00;99.90;;;;;;5081727;28;20051;-77
2024/01/15 23:07:56;;;;;;;0.10;0.10;;;-0.10;99.90;;;;;;5111148;27;20049;-76
2024/01/15 23:10:24;;;;;;;0.10;0.10;;;-0.10;99.90;;;;;;5085782;28;20506;-76
2024/01/15 23:12:51;;;;;;;0.10;0.10;;;-0.10;99.90;;;;;;5081585;28;20049;-76
2024/01/15 23:15:18;;;;;;;0.10;0.10;;;-0.20;99.90;;;;;;5066890;28;20048;-75
2024/01/15 23:17:46;;;;;;;0.10;0.10;;;-0.20;99.90;;;;;;5069432;28;20067;-76
2024/01/15 23:20:13;;;;;;;0.10;0.10;;;-0.20;99.90;;;;;;5066838;28;24370;-77
2024/01/15 23:22:41;;;;;;;0.10;0.10;;;-0.30;99.90;;;;;;5066937;28;20160;-76
2024/01/15 23:25:08;;;;;;;0.10;0.10;;;-0.30;99.90;;;;;;5044648;28;20064;-76
2024/01/15 23:27:36;;;;;;;0.10;0.10;;;-0.40;99.90;;;;;;5086074;28;20056;-76
2024/01/15 23:30:04;;;;;;;0.20;0.20;;;-0.40;99.90;;;;;;5084175;28;20059;-75
2024/01/15 23:32:31;;;;;;;0.10;0.10;;;-0.40;99.90;;;;;;5116510;27;20041;-76
2024/01/15 23:35:00;;;;;;;0.10;0.10;;;-0.50;99.90;;;;;;5077855;28;20048;-76
2024/01/15 23:37:27;;;;;;;0.20;0.20;;;-0.50;99.90;;;;;;5081042;28;20052;-76
2024/01/15 23:39:55;;;;;;;0.13;0.13;;;-0.50;99.90;;;;;;5084731;28;20436;-76
2024/01/15 23:42:22;;;;;;;0.10;0.10;;;-0.50;99.90;;;;;;5083353;28;20051;-76
2024/01/15 23:44:49;;;;;;;0.10;0.10;;;-0.60;99.90;;;;;;5066841;28;20499;-76
2024/01/15 23:47:17;;;;;;;0.20;0.20;;;-0.50;99.90;;;;;;5070917;28;20044;-76
2024/01/15 23:49:44;;;;;;;0.17;0.17;;;-0.50;99.90;;;;;;5066839;28;20053;-75
2024/01/15 23:52:12;;;;;;;0.10;0.10;;;-0.40;99.90;;;;;;5078629;28;20056;-75
2024/01/15 23:54:39;;;;;;;0.10;0.10;;;-0.40;99.90;;;;;;5056523;28;20523;-74
2024/01/15 23:57:06;;;;;;;0.10;0.10;;;-0.30;99.90;;;;;;5055567;28;20079;-75
2024/01/15 23:59:35;;;;;;;0.20;0.20;;;-0.20;99.90;;;;;;5062100;28;20525;-75
